Time;durP1;ratioP1;P1;durP2;ratioP2;P2;SDS_P1;SDS_P2;PMS_P1;PMS_P2;Temp;Humidity;BMP_temperature;BMP_pressure;BME280_temperature;BME280_humidity;BME280_pressure;Samples;Min_cycle;Max_cycle;Signal;HPM_P1;HPM_P2
2022/11/05 00:10:31;;;;;;;58.10;40.40;;;;;;;10.34;76.98;96275.80;1746088;82;25674;-76
2022/11/05 00:18:29;;;;;;;60.52;40.40;;;;;;;10.34;77.03;96271.75;1745782;82;28217;-73
2022/11/05 00:20:56;;;;;;;61.05;40.10;;;;;;;10.34;77.09;96271.75;1746096;81;25872;-73
2022/11/05 00:26:10;;;;;;;62.88;42.20;;;;;;;10.26;77.25;96269.43;1746055;82;25865;-74
2022/11/05 00:28:39;;;;;;;56.18;38.28;;;;;;;10.21;77.31;96273.87;1746158;81;25231;-73
2022/11/05 00:31:10;;;;;;;62.08;40.38;;;;;;;10.19;77.40;96273.29;1746106;82;28205;-77
2022/11/05 00:33:40;;;;;;;62.00;40.03;;;;;;;10.20;77.55;96272.23;1746163;82;26091;-73
2022/11/05 00:36:09;;;;;;;61.50;39.65;;;;;;;10.17;77.61;96266.75;1688966;84;25821;-75
2022/11/05 00:38:36;;;;;;;59.75;39.55;;;;;;;10.14;77.65;96267.24;1687155;85;25782;-73
2022/11/05 00:41:02;;;;;;;51.02;36.55;;;;;;;10.10;77.74;96270.11;1687133;85;25874;-74
2022/11/05 00:46:13;;;;;;;55.35;38.20;;;;;;;10.11;77.84;96277.97;1686759;85;25791;-73
2022/11/05 00:51:25;;;;;;;52.78;37.00;;;;;;;10.15;77.90;96292.30;1687065;85;25771;-77
2022/11/05 00:53:51;;;;;;;50.67;35.73;;;;;;;10.11;77.89;96292.80;1687080;85;25758;-76
2022/11/05 00:56:18;;;;;;;54.80;36.00;;;;;;;10.11;78.02;96290.63;1687059;83;27370;-75
2022/11/05 00:58:44;;;;;;;48.95;33.92;;;;;;;10.10;77.98;96288.98;1686778;85;25520;-78
2022/11/05 01:01:11;;;;;;;51.40;34.75;;;;;;;10.12;77.99;96292.27;1687157;85;25896;-76
2022/11/05 01:03:39;;;;;;;51.42;34.53;;;;;;;10.16;77.96;96288.55;1687055;83;25742;-74
2022/11/05 01:06:13;;;;;;;53.50;34.50;;;;;;;10.19;77.92;96301.08;1678460;85;25993;-75
2022/11/05 01:08:42;;;;;;;53.28;36.28;;;;;;;10.20;77.93;96304.59;1671274;85;27458;-73
2022/11/05 01:11:35;;;;;;;53.23;34.63;;;;;;;10.22;77.95;96299.27;1665551;86;25910;-74
2022/11/05 01:14:13;;;;;;;47.62;33.67;;;;;;;10.22;77.90;96302.49;1678253;85;25326;-73
2022/11/05 01:16:40;;;;;;;50.58;33.88;;;;;;;10.21;77.88;96307.59;1650273;86;26413;-74
2022/11/05 01:19:10;;;;;;;45.15;33.13;;;;;;;10.17;77.96;96300.98;1653641;86;25877;-74
2022/11/05 01:21:36;;;;;;;49.05;32.90;;;;;;;10.13;78.01;96304.70;1654461;86;28099;-74
2022/11/05 01:24:04;;;;;;;46.40;34.20;;;;;;;10.14;78.05;96312.27;1662401;86;25803;-75
2022/11/05 01:26:30;;;;;;;47.17;32.98;;;;;;;10.16;78.04;96313.64;1645283;87;25823;-75
2022/11/05 01:29:00;;;;;;;48.70;33.67;;;;;;;10.14;78.02;96307.69;1662711;86;25772;-74
2022/11/05 01:31:28;;;;;;;51.48;33.73;;;;;;;10.14;78.02;96306.88;1644272;87;25866;-76
2022/11/05 01:33:54;;;;;;;48.60;33.75;;;;;;;10.12;78.05;96319.23;1713793;83;27427;-74
2022/11/05 01:36:21;;;;;;;46.15;33.88;;;;;;;10.13;78.10;96320.06;1702348;84;25513;-75
2022/11/05 01:38:47;;;;;;;47.55;33.20;;;;;;;10.14;78.17;96322.52;1702300;84;25742;-75
2022/11/05 01:41:14;;;;;;;44.83;32.40;;;;;;;10.15;78.16;96325.48;1702330;84;26318;-73
2022/11/05 01:43:49;;;;;;;48.10;32.42;;;;;;;10.15;78.13;96321.44;1701971;84;25842;-76
2022/11/05 01:46:30;;;;;;;48.38;31.82;;;;;;;10.15;78.13;96320.09;1721220;83;28491;-76
2022/11/05 01:49:02;;;;;;;46.37;31.75;;;;;;;10.14;78.18;96329.27;1719753;83;25693;-74
2022/11/05 01:51:28;;;;;;;44.48;33.00;;;;;;;10.15;78.16;96332.22;1718217;83;25533;-74
2022/11/05 01:54:02;;;;;;;44.08;31.85;;;;;;;10.15;78.25;96321.44;1721435;83;25674;-76
2022/11/05 01:56:36;;;;;;;42.55;30.62;;;;;;;10.15;78.26;96321.44;1720824;83;25421;-74
2022/11/05 01:59:08;;;;;;;48.10;30.60;;;;;;;10.17;78.30;96319.86;1717993;83;26859;-75
2022/11/05 02:01:35;;;;;;;42.70;29.25;;;;;;;10.17;78.31;96317.98;1690834;84;25737;-78
2022/11/05 02:04:06;;;;;;;42.25;30.05;;;;;;;10.17;78.35;96317.98;1672499;85;25766;-74
2022/11/05 02:06:37;;;;;;;44.40;29.87;;;;;;;10.19;78.32;96317.78;1652546;86;27296;-75
2022/11/05 02:09:20;;;;;;;39.23;29.10;;;;;;;10.21;78.35;96318.38;1651839;86;25932;-77
2022/11/05 02:11:49;;;;;;;39.85;28.10;;;;;;;10.20;78.29;96314.86;1652201;86;27445;-74
2022/11/05 02:14:17;;;;;;;39.03;29.10;;;;;;;10.20;78.29;96319.43;1651770;86;26023;-73
2022/11/05 02:16:51;;;;;;;40.10;28.55;;;;;;;10.18;78.33;96315.61;1651837;86;25870;-74
2022/11/05 02:19:44;;;;;;;37.42;26.93;;;;;;;10.18;78.34;96315.61;1599804;89;25732;-74
2022/11/05 02:22:34;;;;;;;;;;;;;;;10.19;78.42;96316.44;1599035;89;25760;-77
2022/11/05 02:25:25;;;;;;;38.98;27.30;;;;;;;10.18;78.66;96312.92;1601241;89;28429;-75
2022/11/05 02:28:31;;;;;;;41.85;30.15;;;;;;;10.15;78.59;96318.74;1601993;89;25795;-74
2022/11/05 02:31:20;;;;;;;45.78;30.43;;;;;;;10.13;78.70;96316.02;1601662;89;25909;-76
2022/11/05 02:34:18;;;;;;;43.70;30.57;;;;;;;10.11;78.72;96321.63;1600612;89;26345;-74
2022/11/05 02:37:20;;;;;;;43.40;29.75;;;;;;;10.11;78.73;96324.33;1601593;89;25862;-74
2022/11/05 02:40:01;;;;;;;45.58;29.98;;;;;;;10.11;78.82;96327.85;1602396;87;28510;-74
2022/11/05 02:42:45;;;;;;;43.45;30.12;;;;;;;10.08;78.97;96331.53;1599944;89;25877;-75
2022/11/05 02:45:28;;;;;;;38.73;27.58;;;;;;;10.05;79.08;96336.86;1643308;87;25757;-76
2022/11/05 02:48:09;;;;;;;40.67;28.80;;;;;;;10.01;79.10;96338.93;1640987;87;25798;-75
2022/11/05 02:50:47;;;;;;;41.45;30.48;;;;;;;10.03;79.18;96340.31;1641778;87;25887;-76
2022/11/05 02:54:03;;;;;;;42.45;31.35;;;;;;;10.05;79.17;96348.17;1656818;86;27461;-75
2022/11/05 02:56:38;;;;;;;42.10;28.55;;;;;;;10.08;79.26;96353.11;1668741;85;25536;-74
2022/11/05 02:59:05;;;;;;;43.80;28.40;;;;;;;10.08;79.30;96370.63;1685795;85;25898;-74
2022/11/05 03:01:31;;;;;;;41.10;30.60;;;;;;;10.05;79.39;96375.13;1685730;85;26221;-75
2022/11/05 03:04:00;;;;;;;38.78;29.63;;;;;;;10.02;79.43;96376.41;1717530;82;25895;-75
2022/11/05 03:06:50;;;;;;;41.48;27.90;;;;;;;10.02;79.47;96380.45;1731434;82;27460;-74
2022/11/05 03:09:39;;;;;;;46.37;29.52;;;;;;;10.00;79.50;96389.85;1670280;85;25872;-75
2022/11/05 03:12:46;;;;;;;43.65;30.52;;;;;;;10.02;79.50;96395.28;1645508;87;25832;-74
2022/11/05 03:15:21;;;;;;;43.23;30.82;;;;;;;10.05;79.52;96387.27;1645292;87;26456;-76
2022/11/05 03:17:58;;;;;;;42.30;29.65;;;;;;;10.07;79.57;96391.91;1642828;87;25486;-76
2022/11/05 03:20:36;;;;;;;40.85;29.42;;;;;;;10.09;79.61;96397.89;1642199;86;28262;-76
2022/11/05 03:23:28;;;;;;;49.70;33.65;;;;;;;10.09;79.66;96391.15;1583069;90;25752;-78
2022/11/05 03:26:09;;;;;;;41.65;31.60;;;;;;;10.07;79.69;96387.33;1580556;90;25609;-78
2022/11/05 03:28:40;;;;;;;43.08;30.57;;;;;;;10.08;79.75;96393.02;1580214;90;25803;-77
2022/11/05 03:31:08;;;;;;;39.98;27.67;;;;;;;10.11;79.71;96402.53;1583023;90;25865;-78
2022/11/05 03:33:37;;;;;;;40.63;28.30;;;;;;;10.15;79.71;96403.69;1583004;90;27397;-78
2022/11/05 03:36:14;;;;;;;38.35;26.02;;;;;;;10.18;79.71;96399.22;1582696;90;25894;-75
2022/11/05 03:38:46;;;;;;;36.00;26.80;;;;;;;10.21;79.73;96397.94;1552836;91;25843;-76
2022/11/05 03:41:15;;;;;;;38.13;28.00;;;;;;;10.18;79.73;96397.86;1553187;92;26475;-76
2022/11/05 03:43:49;;;;;;;41.48;28.70;;;;;;;10.16;79.77;96397.23;1536765;92;25823;-77
2022/11/05 03:46:21;;;;;;;42.05;28.27;;;;;;;10.17;79.81;96406.98;1586496;90;27394;-77
2022/11/05 03:48:51;;;;;;;35.30;26.42;;;;;;;10.18;79.78;96415.39;1596126;89;25831;-76
2022/11/05 03:51:45;;;;;;;39.80;26.77;;;;;;;10.17;79.88;96411.02;1599314;89;25743;-76
2022/11/05 03:54:12;;;;;;;36.33;26.93;;;;;;;10.15;79.87;96410.42;1599221;89;25787;-75
2022/11/05 03:56:50;;;;;;;39.13;27.10;;;;;;;10.11;79.98;96416.83;1599108;89;25758;-76
2022/11/05 03:59:19;;;;;;;39.30;27.02;;;;;;;10.12;80.05;96420.35;1606345;84;27398;-76
2022/11/05 04:01:46;;;;;;;38.13;27.82;;;;;;;10.11;80.06;96415.48;1694832;84;25788;-76
2022/11/05 04:04:13;;;;;;;39.27;27.70;;;;;;;10.12;80.09;96417.66;1695140;84;25780;-76
2022/11/05 04:14:56;;;;;;;40.05;28.25;;;;;;;10.18;80.14;96432.07;1694596;84;26485;-76
2022/11/05 04:17:22;;;;;;;40.78;28.10;;;;;;;10.15;80.18;96432.52;1695221;84;25885;-77
2022/11/05 04:25:22;;;;;;;37.85;28.60;;;;;;;10.13;80.42;96439.53;1685879;84;27436;-77
2022/11/05 04:27:48;;;;;;;43.25;29.55;;;;;;;10.14;80.50;96444.39;1683793;85;26101;-77
2022/11/05 04:30:17;;;;;;;43.70;32.63;;;;;;;10.11;80.48;96437.58;1683771;85;25758;-76
2022/11/05 04:33:09;;;;;;;41.42;30.15;;;;;;;10.11;80.52;96437.58;1683782;85;25836;-79
2022/11/05 04:35:42;;;;;;;45.52;31.70;;;;;;;10.13;80.51;96440.87;1698151;83;25737;-76
2022/11/05 04:38:18;;;;;;;45.92;32.17;;;;;;;10.15;80.54;96440.09;1710010;83;28253;-77
2022/11/05 04:40:46;;;;;;;43.42;31.33;;;;;;;10.17;80.62;96437.98;1709558;83;25712;-77
2022/11/05 04:43:16;;;;;;;46.37;32.03;;;;;;;10.16;80.64;96437.69;1709909;83;25730;-77
2022/11/05 04:45:43;;;;;;;41.58;31.02;;;;;;;10.15;80.66;96442.78;1709913;83;25753;-76
2022/11/05 04:48:11;;;;;;;43.40;30.48;;;;;;;10.14;80.76;96442.52;1709996;83;25701;-79
2022/11/05 04:50:38;;;;;;;40.88;30.77;;;;;;;10.10;80.81;96452.94;1709952;83;28423;-76
2022/11/05 04:53:05;;;;;;;42.05;30.37;;;;;;;10.07;80.96;96455.27;1709647;83;43892;-77
2022/11/05 04:55:32;;;;;;;39.48;29.70;;;;;;;10.02;81.00;96457.30;1724943;81;25701;-76
2022/11/05 04:57:58;;;;;;;37.85;28.67;;;;;;;10.01;81.18;96461.08;1757346;81;26492;-76
2022/11/05 05:00:25;;;;;;;33.02;24.47;;;;;;;10.03;81.25;96458.12;1757611;81;25690;-75
2022/11/05 05:02:52;;;;;;;30.85;23.40;;;;;;;10.07;81.29;96457.97;1757222;81;27420;-75
2022/11/05 05:05:18;;;;;;;26.42;20.08;;;;;;;10.09;81.26;96460.73;1757384;81;25619;-75
2022/11/05 05:07:45;;;;;;;20.00;15.72;;;;;;;10.10;81.23;96464.25;1757545;81;25654;-76
2022/11/05 05:10:12;;;;;;;15.88;12.98;;;;;;;10.10;81.14;96464.25;1757232;81;25718;-75
2022/11/05 05:12:38;;;;;;;16.42;12.13;;;;;;;10.10;81.06;96469.64;1757393;81;25793;-77
2022/11/05 05:15:06;;;;;;;8.65;6.85;;;;;;;10.11;80.98;96481.55;1757271;81;28123;-74
2022/11/05 05:17:33;;;;;;;9.98;6.87;;;;;;;10.09;80.71;96481.48;1757220;81;25603;-76
2022/11/05 05:22:53;;;;;;;7.28;6.10;;;;;;;10.01;80.65;96477.77;1757023;81;25501;-76
2022/11/05 05:25:20;;;;;;;7.83;5.53;;;;;;;9.99;80.61;96482.57;1755010;80;26812;-76
2022/11/05 05:27:47;;;;;;;5.78;5.22;;;;;;;10.00;80.62;96486.91;1754600;81;27505;-74
2022/11/05 05:30:13;;;;;;;5.37;4.75;;;;;;;10.02;80.58;96487.51;1754447;81;25647;-75
2022/11/05 05:32:40;;;;;;;5.20;4.28;;;;;;;9.99;80.54;96501.44;1754662;81;25704;-74
2022/11/05 05:35:07;;;;;;;5.40;4.90;;;;;;;9.89;80.53;96486.35;1754690;80;25716;-76
2022/11/05 05:37:33;;;;;;;5.87;4.67;;;;;;;9.78;80.57;96493.31;1754609;81;25750;-78
2022/11/05 05:40:00;;;;;;;5.50;4.33;;;;;;;9.67;80.59;96501.65;1754601;81;27400;-78
2022/11/05 05:42:26;;;;;;;5.22;4.40;;;;;;;9.65;80.66;96507.81;1754362;81;25666;-74
2022/11/05 05:44:53;;;;;;;5.12;4.62;;;;;;;9.65;80.75;96512.38;1754570;81;26264;-75
2022/11/05 05:47:19;;;;;;;5.35;4.85;;;;;;;9.67;80.75;96521.03;1754627;81;25743;-75
2022/11/05 05:49:46;;;;;;;4.90;4.42;;;;;;;9.67;80.67;96518.34;1754655;81;25779;-77
2022/11/05 05:52:12;;;;;;;6.72;6.05;;;;;;;9.68;80.65;96524.85;1754709;81;28180;-76
2022/11/05 05:54:39;;;;;;;5.92;5.33;;;;;;;9.68;80.71;96531.59;1754705;81;25414;-77
2022/11/05 05:57:05;;;;;;;6.08;5.05;;;;;;;9.67;80.58;96531.29;1754697;81;25686;-76
2022/11/05 05:59:32;;;;;;;6.85;6.22;;;;;;;9.67;80.45;96537.20;1754646;81;25701;-76
2022/11/05 06:01:59;;;;;;;6.78;6.08;;;;;;;9.66;80.42;96535.59;1754673;81;25729;-76
2022/11/05 06:04:26;;;;;;;6.45;5.83;;;;;;;9.66;80.49;96541.77;1754313;81;28263;-76
2022/11/05 06:06:52;;;;;;;6.92;5.85;;;;;;;9.63;80.44;96544.94;1754597;81;25659;-76
2022/11/05 06:09:19;;;;;;;8.48;6.58;;;;;;;9.60;80.38;96550.77;1754797;81;25778;-76
2022/11/05 06:11:46;;;;;;;8.70;6.83;;;;;;;9.55;80.32;96556.52;1754346;81;25742;-78
2022/11/05 06:14:13;;;;;;;13.93;9.43;;;;;;;9.45;80.29;96567.83;1754757;81;25718;-76
2022/11/05 06:16:40;;;;;;;12.18;7.50;;;;;;;9.39;80.32;96570.91;1754707;81;28187;-75
2022/11/05 06:19:07;;;;;;;6.37;4.92;;;;;;;9.39;80.43;96578.17;1754440;81;25389;-76
2022/11/05 06:21:37;;;;;;;6.25;4.30;;;;;;;9.38;80.42;96587.30;1754861;80;25680;-76
2022/11/05 06:24:04;;;;;;;5.30;3.98;;;;;;;9.34;80.40;96591.47;1771947;80;26476;-75
2022/11/05 06:26:30;;;;;;;4.25;3.85;;;;;;;9.32;80.46;96593.03;1771621;80;25684;-76
2022/11/05 06:28:57;;;;;;;4.70;4.30;;;;;;;9.34;80.35;96599.03;1771909;80;27676;-79
2022/11/05 06:31:24;;;;;;;4.85;4.35;;;;;;;9.37;80.35;96603.16;1771719;80;25267;-77
2022/11/05 06:33:51;;;;;;;8.35;5.03;;;;;;;9.39;80.32;96602.41;1772124;80;25706;-76
2022/11/05 06:36:19;;;;;;;5.08;4.58;;;;;;;9.39;80.31;96610.49;1771705;80;26453;-76
2022/11/05 06:38:46;;;;;;;6.00;5.40;;;;;;;9.42;80.37;96617.31;1771662;80;25793;-76
2022/11/05 06:41:12;;;;;;;6.95;5.45;;;;;;;9.44;80.38;96617.36;1771781;80;28177;-79
2022/11/05 06:43:39;;;;;;;5.75;5.20;;;;;;;9.47;80.32;96625.01;1771730;80;25720;-76
2022/11/05 06:46:06;;;;;;;5.22;4.67;;;;;;;9.48;80.24;96629.35;1771954;80;25837;-78
2022/11/05 06:48:33;;;;;;;4.58;4.17;;;;;;;9.46;80.26;96630.61;1766041;80;25741;-77
2022/11/05 06:51:00;;;;;;;7.25;5.78;;;;;;;9.39;80.08;96642.30;1759612;81;25447;-76
2022/11/05 06:53:26;;;;;;;6.00;5.35;;;;;;;9.38;80.19;96643.34;1759748;81;27353;-78
2022/11/05 06:55:53;;;;;;;7.22;5.03;;;;;;;9.38;80.29;96639.81;1759613;81;25756;-79
2022/11/05 06:58:19;;;;;;;8.78;5.28;;;;;;;9.37;80.22;96647.08;1759675;81;25745;-77
2022/11/05 07:00:46;;;;;;;7.25;6.55;;;;;;;9.38;80.27;96649.25;1759644;81;26270;-76
2022/11/05 07:03:13;;;;;;;9.63;7.72;;;;;;;9.42;80.29;96659.86;1759655;81;25867;-80
2022/11/05 07:05:47;;;;;;;17.92;12.78;;;;;;;9.46;80.22;96654.86;1759565;81;27358;-76
2022/11/05 07:08:14;;;;;;;9.78;8.70;;;;;;;9.48;80.20;96669.76;1759566;81;25841;-76
2022/11/05 07:10:40;;;;;;;9.60;7.80;;;;;;;9.46;80.13;96661.07;1759604;81;25733;-78
2022/11/05 07:13:07;;;;;;;12.37;7.75;;;;;;;9.47;80.13;96666.77;1759473;81;25745;-76
2022/11/05 07:15:33;;;;;;;10.08;7.42;;;;;;;9.45;80.13;96668.02;1759360;81;25879;-79
2022/11/05 07:18:00;;;;;;;9.75;8.00;;;;;;;9.48;80.19;96670.28;1759622;80;27347;-76
2022/11/05 07:20:27;;;;;;;8.33;7.05;;;;;;;9.48;80.15;96677.02;1759522;81;25820;-76
2022/11/05 07:23:08;;;;;;;7.47;6.12;;;;;;;9.47;80.22;96684.27;1759657;81;26503;-79
2022/11/05 07:25:35;;;;;;;6.80;6.08;;;;;;;9.46;80.25;96681.27;1719634;83;26381;-76
2022/11/05 07:28:03;;;;;;;7.65;5.85;;;;;;;9.49;80.20;96690.27;1718340;83;25892;-76
2022/11/05 07:30:31;;;;;;;6.42;5.62;;;;;;;9.47;80.10;96689.66;1718231;83;27403;-76
2022/11/05 07:32:58;;;;;;;6.28;5.67;;;;;;;9.42;80.02;96689.48;1718047;83;25812;-76
2022/11/05 07:35:25;;;;;;;6.47;5.33;;;;;;;9.42;80.06;96690.04;1718342;83;25903;-76
2022/11/05 07:37:53;;;;;;;8.80;5.65;;;;;;;9.37;79.98;96691.52;1718382;83;25906;-76
2022/11/05 07:40:22;;;;;;;6.33;5.60;;;;;;;9.38;80.03;96702.59;1718198;83;25787;-78
2022/11/05 07:42:58;;;;;;;5.95;5.03;;;;;;;9.40;80.06;96701.03;1718277;83;27366;-77
2022/11/05 07:45:26;;;;;;;5.87;5.00;;;;;;;9.41;80.06;96698.64;1668362;85;25793;-78
2022/11/05 07:48:02;;;;;;;5.33;4.50;;;;;;;9.39;80.07;96692.65;1635639;87;25988;-77
2022/11/05 07:50:32;;;;;;;6.35;4.92;;;;;;;9.40;80.05;96694.30;1597597;89;26907;-76
2022/11/05 07:53:05;;;;;;;8.43;5.65;;;;;;;9.39;80.06;96699.38;1597559;89;25912;-77
2022/11/05 07:55:32;;;;;;;6.78;5.47;;;;;;;9.37;80.00;96700.12;1536517;93;27676;-77
2022/11/05 07:57:59;;;;;;;5.20;4.70;;;;;;;9.40;80.08;96705.08;1537585;93;25925;-75
2022/11/05 08:00:26;;;;;;;5.87;5.08;;;;;;;9.36;79.99;96701.16;1537595;93;25773;-75
2022/11/05 08:03:13;;;;;;;5.58;4.75;;;;;;;9.33;80.15;96701.08;1537562;93;26416;-74
2022/11/05 08:05:43;;;;;;;9.60;6.03;;;;;;;9.34;80.15;96700.55;1510345;94;25926;-74
2022/11/05 08:08:11;;;;;;;7.75;6.20;;;;;;;9.34;80.21;96704.59;1510309;94;27461;-74
2022/11/05 08:10:39;;;;;;;8.28;7.40;;;;;;;9.34;80.25;96704.59;1510276;94;25600;-77
2022/11/05 08:13:07;;;;;;;13.18;8.53;;;;;;;9.35;80.21;96707.59;1510286;94;25590;-76
2022/11/05 08:15:34;;;;;;;12.73;9.23;;;;;;;9.36;80.15;96715.97;1510093;95;26582;-75
2022/11/05 08:18:06;;;;;;;11.75;6.42;;;;;;;9.37;80.17;96721.67;1510350;93;25683;-75
2022/11/05 08:20:34;;;;;;;9.30;6.42;;;;;;;9.35;80.08;96726.45;1450858;98;27491;-75
2022/11/05 08:23:00;;;;;;;7.72;5.80;;;;;;;9.33;80.04;96727.18;1409807;100;25947;-76
2022/11/05 08:25:27;;;;;;;5.55;4.95;;;;;;;9.32;79.98;96729.57;1409197;101;25816;-76
2022/11/05 08:28:03;;;;;;;5.55;4.10;;;;;;;9.29;80.01;96730.03;1408922;101;26554;-76
2022/11/05 08:30:31;;;;;;;6.40;4.17;;;;;;;9.25;80.06;96739.58;1409189;101;25466;-76
2022/11/05 08:33:03;;;;;;;5.28;4.22;;;;;;;9.22;80.07;96740.02;1409032;101;27618;-76
2022/11/05 08:35:30;;;;;;;5.37;4.87;;;;;;;9.22;80.14;96748.09;1421340;100;25885;-76
2022/11/05 08:37:59;;;;;;;4.58;4.15;;;;;;;9.23;80.12;96753.78;1421146;100;25924;-76
2022/11/05 08:40:26;;;;;;;5.65;4.10;;;;;;;9.22;80.15;96758.86;1421179;100;25699;-76
2022/11/05 08:42:58;;;;;;;6.83;3.92;;;;;;;9.23;80.20;96757.82;1430595;99;25554;-76
2022/11/05 08:45:26;;;;;;;5.17;4.10;;;;;;;9.25;80.18;96767.86;1463798;98;27445;-76
2022/11/05 08:48:00;;;;;;;5.65;4.17;;;;;;;9.26;80.16;96769.52;1482308;96;25985;-76
2022/11/05 08:50:28;;;;;;;8.35;6.00;;;;;;;9.29;80.17;96775.30;1494441;95;25981;-76
2022/11/05 08:52:54;;;;;;;11.45;7.37;;;;;;;9.31;80.13;96777.74;1511179;94;25883;-76
2022/11/05 08:55:21;;;;;;;13.15;7.42;;;;;;;9.33;80.12;96779.70;1538523;92;26609;-76
2022/11/05 08:57:48;;;;;;;13.65;7.85;;;;;;;9.34;80.10;96784.05;1574310;89;27466;-78
2022/11/05 09:00:15;;;;;;;8.05;5.60;;;;;;;9.33;80.05;96773.80;1599912;89;25833;-77
2022/11/05 09:02:41;;;;;;;7.00;4.45;;;;;;;9.33;80.04;96779.70;1600037;89;25342;-76
2022/11/05 09:05:08;;;;;;;5.08;4.30;;;;;;;9.32;80.00;96778.05;1601950;89;26402;-76
2022/11/05 09:07:35;;;;;;;7.70;4.62;;;;;;;9.29;80.02;96783.89;1603441;89;25794;-77
2022/11/05 09:10:01;;;;;;;7.42;4.53;;;;;;;9.32;80.08;96783.44;1603295;89;27441;-77
2022/11/05 09:12:28;;;;;;;7.65;4.45;;;;;;;9.34;80.13;96789.44;1603363;89;25323;-76
2022/11/05 09:14:54;;;;;;;6.83;4.85;;;;;;;9.37;80.11;96789.00;1603443;89;25800;-76
2022/11/05 09:17:22;;;;;;;8.40;5.50;;;;;;;9.37;80.09;96799.78;1603426;89;25845;-76
2022/11/05 09:19:49;;;;;;;5.40;4.67;;;;;;;9.39;80.07;96798.52;1603105;89;25896;-76
2022/11/05 09:22:15;;;;;;;7.08;5.10;;;;;;;9.38;79.97;96798.73;1603264;89;28005;-77
2022/11/05 09:24:43;;;;;;;5.95;5.33;;;;;;;9.40;79.96;96792.62;1603298;89;25714;-77
2022/11/05 09:27:12;;;;;;;10.53;7.03;;;;;;;9.42;79.96;96803.17;1631127;87;25767;-75
2022/11/05 09:29:40;;;;;;;10.28;6.78;;;;;;;9.43;79.97;96804.28;1632627;87;25548;-76
2022/11/05 09:32:08;;;;;;;13.43;7.92;;;;;;;9.42;79.86;96801.83;1668170;83;25801;-75
2022/11/05 09:34:35;;;;;;;9.75;8.60;;;;;;;9.39;79.84;96799.05;1736851;82;27366;-77
2022/11/05 09:37:01;;;;;;;9.08;8.10;;;;;;;9.38;79.83;96804.12;1736733;82;25732;-75
2022/11/05 09:39:28;;;;;;;7.67;6.90;;;;;;;9.36;79.85;96803.52;1736898;82;26943;-75
2022/11/05 09:42:03;;;;;;;8.85;7.30;;;;;;;9.36;79.88;96807.55;1736866;82;26476;-76
2022/11/05 09:44:47;;;;;;;7.90;6.58;;;;;;;9.36;79.88;96802.99;1734200;82;25458;-75
2022/11/05 09:47:23;;;;;;;8.05;5.40;;;;;;;9.38;79.93;96801.43;1736867;82;27465;-75
2022/11/05 09:49:54;;;;;;;5.53;4.58;;;;;;;9.41;79.91;96802.34;1677154;85;25802;-78
2022/11/05 09:52:27;;;;;;;6.17;4.90;;;;;;;9.41;79.95;96807.73;1680445;85;25880;-76
2022/11/05 09:54:55;;;;;;;6.05;4.87;;;;;;;9.40;79.97;96806.08;1680849;85;26053;-75
2022/11/05 09:57:36;;;;;;;11.80;7.15;;;;;;;9.38;79.96;96806.82;1680675;85;25931;-76
2022/11/05 10:00:07;;;;;;;9.40;7.15;;;;;;;9.37;79.94;96811.90;1680384;85;27399;-77
2022/11/05 10:02:47;;;;;;;9.33;6.83;;;;;;;9.40;79.95;96811.47;1680758;85;25724;-76
2022/11/05 10:05:15;;;;;;;5.35;4.62;;;;;;;9.44;80.02;96815.87;1693323;84;25689;-76
2022/11/05 10:07:52;;;;;;;8.33;6.90;;;;;;;9.46;79.97;96820.53;1666346;86;25824;-76
2022/11/05 10:10:38;;;;;;;6.60;5.95;;;;;;;9.47;79.88;96821.66;1710768;83;25789;-76
2022/11/05 10:13:24;;;;;;;5.50;4.00;;;;;;;9.46;79.87;96822.70;1666535;86;27349;-77
2022/11/05 10:16:16;;;;;;;4.42;3.10;;;;;;;9.43;79.72;96830.39;1656114;85;25876;-75
2022/11/05 10:18:47;;;;;;;4.42;2.42;;;;;;;9.38;79.78;96825.67;1579201;90;25797;-75
2022/11/05 10:21:18;;;;;;;2.42;2.20;;;;;;;9.31;79.76;96830.26;1566569;91;25910;-75
2022/11/05 10:23:46;;;;;;;2.70;2.10;;;;;;;9.26;79.74;96831.45;1566809;91;25844;-76
2022/11/05 10:26:20;;;;;;;2.72;2.45;;;;;;;9.26;79.87;96824.72;1568787;90;27587;-77
2022/11/05 10:28:49;;;;;;;3.02;2.08;;;;;;;9.27;79.86;96829.06;1569705;90;25775;-76
2022/11/05 10:31:20;;;;;;;2.72;1.85;;;;;;;9.29;79.88;96836.41;1592423;90;25367;-78
2022/11/05 10:33:51;;;;;;;12.07;6.25;;;;;;;9.28;79.87;96838.80;1592598;90;26655;-77
2022/11/05 10:36:28;;;;;;;24.23;11.63;;;;;;;9.29;79.83;96843.14;1592837;90;25838;-75
2022/11/05 10:38:59;;;;;;;23.30;11.10;;;;;;;9.24;79.72;96845.65;1592716;90;27406;-75
2022/11/05 10:41:37;;;;;;;18.87;10.63;;;;;;;9.26;79.73;96847.09;1592644;90;25780;-76
2022/11/05 10:44:12;;;;;;;13.85;8.58;;;;;;;9.28;79.79;96849.57;1589931;90;25799;-76
2022/11/05 10:47:22;;;;;;;9.73;6.60;;;;;;;9.30;79.77;96844.77;1592733;88;26350;-76
2022/11/05 10:50:06;;;;;;;9.38;6.17;;;;;;;9.32;79.72;96852.11;1592639;88;25875;-78
2022/11/05 10:52:43;;;;;;;11.93;7.35;;;;;;;9.35;79.77;96844.44;1539038;93;28088;-77
2022/11/05 10:55:32;;;;;;;9.75;7.00;;;;;;;9.39;79.78;96843.48;1591475;86;25774;-79
2022/11/05 10:58:21;;;;;;;8.68;5.33;;;;;;;9.41;79.84;96845.45;1661179;84;25689;-76
2022/11/05 11:00:56;;;;;;;7.40;4.95;;;;;;;9.44;79.84;96848.20;1661209;86;25695;-77
2022/11/05 11:03:51;;;;;;;11.85;6.53;;;;;;;9.41;79.68;96844.63;1660901;86;25706;-76
2022/11/05 11:06:31;;;;;;;8.78;5.62;;;;;;;9.42;79.67;96849.77;1660462;84;28134;-76
2022/11/05 11:09:02;;;;;;;9.45;5.67;;;;;;;9.44;79.77;96851.72;1660959;86;25607;-76
2022/11/05 11:11:34;;;;;;;56.00;40.03;;;;;;;9.46;79.80;96858.25;1555664;92;26191;-76
2022/11/05 11:14:05;;;;;;;74.47;55.98;;;;;;;9.48;79.87;96856.17;1555998;92;25517;-77
2022/11/05 11:16:40;;;;;;;9.45;5.97;;;;;;;9.52;79.85;96860.09;1555704;92;25827;-75
2022/11/05 11:19:32;;;;;;;10.45;5.80;;;;;;;9.55;79.79;96856.41;1555714;92;27405;-78
2022/11/05 11:22:09;;;;;;;12.30;8.43;;;;;;;9.56;79.75;96864.80;1555758;92;25823;-76
2022/11/05 11:24:43;;;;;;;14.43;9.08;;;;;;;9.54;79.75;96863.39;1555989;92;25299;-78
2022/11/05 11:27:27;;;;;;;15.13;8.58;;;;;;;9.55;79.79;96863.67;1543002;91;26843;-78
2022/11/05 11:30:00;;;;;;;8.50;6.03;;;;;;;9.60;79.79;96863.33;1539178;93;25779;-74
2022/11/05 11:32:36;;;;;;;7.20;5.10;;;;;;;9.61;79.67;96867.68;1501798;95;27454;-75
2022/11/05 11:35:05;;;;;;;6.40;4.20;;;;;;;9.59;79.53;96867.07;1501500;95;25891;-75
2022/11/05 11:37:40;;;;;;;5.80;4.22;;;;;;;9.53;79.48;96865.78;1501631;95;25842;-77
2022/11/05 11:40:22;;;;;;;6.95;4.95;;;;;;;9.53;79.62;96867.13;1509658;94;26007;-75
2022/11/05 11:42:56;;;;;;;6.75;5.03;;;;;;;9.52;79.67;96873.04;1512789;94;25813;-77
2022/11/05 11:45:40;;;;;;;7.15;4.85;;;;;;;9.49;79.75;96876.16;1512764;94;27436;-76
2022/11/05 11:48:11;;;;;;;6.97;5.12;;;;;;;9.52;79.72;96874.39;1517266;94;25852;-76
2022/11/05 11:50:44;;;;;;;9.23;6.55;;;;;;;9.56;79.78;96870.71;1519953;94;25808;-75
2022/11/05 11:53:25;;;;;;;8.08;6.22;;;;;;;9.56;79.89;96875.58;1520164;94;25908;-75
2022/11/05 11:56:06;;;;;;;7.75;5.30;;;;;;;9.58;79.88;96878.06;1518604;94;26154;-77
2022/11/05 11:58:46;;;;;;;7.37;4.10;;;;;;;9.60;79.83;96886.23;1494667;94;27430;-76
2022/11/05 12:01:44;;;;;;;5.45;4.00;;;;;;;9.62;79.73;96886.02;1471554;97;25865;-75
2022/11/05 12:04:16;;;;;;;4.62;3.45;;;;;;;9.60;79.63;96884.06;1469174;97;25684;-76
2022/11/05 12:06:56;;;;;;;6.90;5.80;;;;;;;9.53;79.69;96884.13;1471927;97;27075;-76
2022/11/05 12:09:31;;;;;;;7.33;6.35;;;;;;;9.53;79.71;96885.47;1592257;89;25876;-76
2022/11/05 12:12:13;;;;;;;5.97;4.70;;;;;;;9.57;79.69;96886.66;1604848;89;27257;-77
2022/11/05 12:15:00;;;;;;;6.78;4.72;;;;;;;9.62;79.65;96889.55;1608097;89;34937;-77
2022/11/05 12:17:53;;;;;;;6.65;4.90;;;;;;;9.59;79.49;96903.45;1608046;89;25787;-75
2022/11/05 12:21:02;;;;;;;5.37;3.87;;;;;;;9.58;79.53;96901.80;1607876;87;26522;-76
2022/11/05 12:23:46;;;;;;;9.83;4.55;;;;;;;9.56;79.43;96905.22;1521660;94;25870;-77
2022/11/05 12:26:45;;;;;;;8.93;7.03;;;;;;;9.52;79.46;96912.63;1522056;93;27487;-76
2022/11/05 12:29:41;;;;;;;7.97;5.92;;;;;;;9.54;79.58;96914.03;1522852;94;25845;-77
2022/11/05 12:32:55;;;;;;;7.35;6.50;;;;;;;9.56;79.56;96914.65;1524858;94;26581;-76
2022/11/05 12:35:42;;;;;;;8.70;6.30;;;;;;;9.59;79.49;96910.70;1536590;90;25783;-76
2022/11/05 12:38:32;;;;;;;12.25;7.80;;;;;;;9.61;79.56;96912.66;1596676;89;25778;-78